sensor_id;sensor_type;location;lat;lon;timestamp;temperature;humidity
59975;DHT22;62136;-35.664;-63.766;2022-11-21T00:00:57;24.50;50.40
59975;DHT22;62136;-35.664;-63.766;2022-11-21T00:03:24;24.40;50.00
59975;DHT22;62136;-35.664;-63.766;2022-11-21T00:05:51;24.40;50.20
59975;DHT22;62136;-35.664;-63.766;2022-11-21T00:08:20;24.40;50.40
59975;DHT22;62136;-35.664;-63.766;2022-11-21T00:10:47;24.40;50.30
59975;DHT22;62136;-35.664;-63.766;2022-11-21T00:13:18;24.40;50.30
59975;DHT22;62136;-35.664;-63.766;2022-11-21T00:15:46;24.30;50.20
59975;DHT22;62136;-35.664;-63.766;2022-11-21T00:18:14;24.30;50.10
59975;DHT22;62136;-35.664;-63.766;2022-11-21T00:20:42;24.30;50.10
59975;DHT22;62136;-35.664;-63.766;2022-11-21T00:23:10;24.30;50.10
59975;DHT22;62136;-35.664;-63.766;2022-11-21T00:25:38;24.30;50.20
59975;DHT22;62136;-35.664;-63.766;2022-11-21T00:28:08;24.30;50.40
59975;DHT22;62136;-35.664;-63.766;2022-11-21T00:30:35;24.30;50.30
59975;DHT22;62136;-35.664;-63.766;2022-11-21T00:33:02;24.30;50.00
59975;DHT22;62136;-35.664;-63.766;2022-11-21T00:35:30;24.20;50.10
59975;DHT22;62136;-35.664;-63.766;2022-11-21T00:37:58;24.20;50.10
59975;DHT22;62136;-35.664;-63.766;2022-11-21T00:40:25;24.20;49.90
59975;DHT22;62136;-35.664;-63.766;2022-11-21T00:42:52;24.20;49.90
59975;DHT22;62136;-35.664;-63.766;2022-11-21T00:45:19;24.20;50.20
59975;DHT22;62136;-35.664;-63.766;2022-11-21T00:47:46;24.20;49.80
59975;DHT22;62136;-35.664;-63.766;2022-11-21T00:50:13;24.10;50.10
59975;DHT22;62136;-35.664;-63.766;2022-11-21T00:52:40;24.10;50.10
59975;DHT22;62136;-35.664;-63.766;2022-11-21T00:55:07;24.10;49.80
59975;DHT22;62136;-35.664;-63.766;2022-11-21T00:57:34;24.10;49.60
59975;DHT22;62136;-35.664;-63.766;2022-11-21T01:00:02;24.10;49.60
59975;DHT22;62136;-35.664;-63.766;2022-11-21T01:02:31;24.10;49.90
59975;DHT22;62136;-35.664;-63.766;2022-11-21T01:04:59;24.10;49.80
59975;DHT22;62136;-35.664;-63.766;2022-11-21T01:07:26;24.10;49.80
59975;DHT22;62136;-35.664;-63.766;2022-11-21T01:09:53;24.10;50.00
59975;DHT22;62136;-35.664;-63.766;2022-11-21T01:12:20;24.10;49.90
59975;DHT22;62136;-35.664;-63.766;2022-11-21T01:14:47;24.10;49.70
59975;DHT22;62136;-35.664;-63.766;2022-11-21T01:17:17;24.00;49.70
59975;DHT22;62136;-35.664;-63.766;2022-11-21T01:19:44;24.00;49.70
59975;DHT22;62136;-35.664;-63.766;2022-11-21T01:22:11;24.00;49.80
59975;DHT22;62136;-35.664;-63.766;2022-11-21T01:24:38;24.00;50.10
59975;DHT22;62136;-35.664;-63.766;2022-11-21T01:27:05;24.00;49.80
59975;DHT22;62136;-35.664;-63.766;2022-11-21T01:29:32;23.90;49.80
59975;DHT22;62136;-35.664;-63.766;2022-11-21T01:32:02;24.00;49.80
59975;DHT22;62136;-35.664;-63.766;2022-11-21T01:34:29;24.00;49.70
59975;DHT22;62136;-35.664;-63.766;2022-11-21T01:36:59;23.90;49.70
59975;DHT22;62136;-35.664;-63.766;2022-11-21T01:39:29;23.90;49.70
59975;DHT22;62136;-35.664;-63.766;2022-11-21T01:41:56;23.90;49.80
59975;DHT22;62136;-35.664;-63.766;2022-11-21T01:44:44;23.90;49.70
59975;DHT22;62136;-35.664;-63.766;2022-11-21T01:47:11;23.90;49.80
59975;DHT22;62136;-35.664;-63.766;2022-11-21T01:49:40;23.80;49.90
59975;DHT22;62136;-35.664;-63.766;2022-11-21T01:54:45;23.90;49.90
59975;DHT22;62136;-35.664;-63.766;2022-11-21T02:00:12;23.80;49.70
59975;DHT22;62136;-35.664;-63.766;2022-11-21T02:02:49;23.80;49.80
59975;DHT22;62136;-35.664;-63.766;2022-11-21T02:05:21;23.80;49.90
59975;DHT22;62136;-35.664;-63.766;2022-11-21T02:07:53;23.80;49.90
59975;DHT22;62136;-35.664;-63.766;2022-11-21T02:10:24;23.80;49.90
59975;DHT22;62136;-35.664;-63.766;2022-11-21T02:12:58;23.70;50.00
59975;DHT22;62136;-35.664;-63.766;2022-11-21T02:15:28;23.70;50.00
59975;DHT22;62136;-35.664;-63.766;2022-11-21T02:17:55;23.70;49.80
59975;DHT22;62136;-35.664;-63.766;2022-11-21T02:20:24;23.70;50.00
59975;DHT22;62136;-35.664;-63.766;2022-11-21T02:23:18;23.70;49.90
59975;DHT22;62136;-35.664;-63.766;2022-11-21T02:25:47;23.70;49.90
59975;DHT22;62136;-35.664;-63.766;2022-11-21T02:28:19;23.60;49.80
59975;DHT22;62136;-35.664;-63.766;2022-11-21T02:30:49;23.70;49.90
59975;DHT22;62136;-35.664;-63.766;2022-11-21T02:33:16;23.70;49.90
59975;DHT22;62136;-35.664;-63.766;2022-11-21T02:35:43;23.60;49.90
59975;DHT22;62136;-35.664;-63.766;2022-11-21T02:38:24;23.60;49.90
59975;DHT22;62136;-35.664;-63.766;2022-11-21T02:41:04;23.60;49.90
59975;DHT22;62136;-35.664;-63.766;2022-11-21T02:43:43;23.60;49.90
59975;DHT22;62136;-35.664;-63.766;2022-11-21T02:46:11;23.60;50.00
59975;DHT22;62136;-35.664;-63.766;2022-11-21T02:48:38;23.50;49.90
59975;DHT22;62136;-35.664;-63.766;2022-11-21T02:51:05;23.60;49.90
59975;DHT22;62136;-35.664;-63.766;2022-11-21T02:53:32;23.50;49.80
59975;DHT22;62136;-35.664;-63.766;2022-11-21T02:55:59;23.50;50.00
59975;DHT22;62136;-35.664;-63.766;2022-11-21T02:58:26;23.50;49.80
59975;DHT22;62136;-35.664;-63.766;2022-11-21T03:00:53;23.50;50.00
59975;DHT22;62136;-35.664;-63.766;2022-11-21T03:03:21;23.50;49.90
59975;DHT22;62136;-35.664;-63.766;2022-11-21T03:05:48;23.50;49.90
59975;DHT22;62136;-35.664;-63.766;2022-11-21T03:08:15;23.50;49.90
59975;DHT22;62136;-35.664;-63.766;2022-11-21T03:10:42;23.50;50.00
59975;DHT22;62136;-35.664;-63.766;2022-11-21T03:13:09;23.50;49.90
59975;DHT22;62136;-35.664;-63.766;2022-11-21T03:15:36;23.40;50.00
59975;DHT22;62136;-35.664;-63.766;2022-11-21T03:18:03;23.40;50.00
59975;DHT22;62136;-35.664;-63.766;2022-11-21T03:20:32;23.30;49.80
59975;DHT22;62136;-35.664;-63.766;2022-11-21T03:23:00;23.30;50.00
59975;DHT22;62136;-35.664;-63.766;2022-11-21T03:25:27;23.30;50.00
59975;DHT22;62136;-35.664;-63.766;2022-11-21T03:27:54;23.30;50.00
59975;DHT22;62136;-35.664;-63.766;2022-11-21T03:30:22;23.30;50.00
59975;DHT22;62136;-35.664;-63.766;2022-11-21T03:32:50;23.30;50.10
59975;DHT22;62136;-35.664;-63.766;2022-11-21T03:35:20;23.30;50.20
59975;DHT22;62136;-35.664;-63.766;2022-11-21T03:37:47;23.30;50.10
59975;DHT22;62136;-35.664;-63.766;2022-11-21T03:40:15;23.30;50.20
59975;DHT22;62136;-35.664;-63.766;2022-11-21T03:42:42;23.20;50.10
59975;DHT22;62136;-35.664;-63.766;2022-11-21T03:45:09;23.20;50.20
59975;DHT22;62136;-35.664;-63.766;2022-11-21T03:47:36;23.20;50.20
59975;DHT22;62136;-35.664;-63.766;2022-11-21T03:50:03;23.20;50.20
59975;DHT22;62136;-35.664;-63.766;2022-11-21T03:52:30;23.20;50.20
59975;DHT22;62136;-35.664;-63.766;2022-11-21T03:54:57;23.10;50.10
59975;DHT22;62136;-35.664;-63.766;2022-11-21T03:57:24;23.10;50.20
59975;DHT22;62136;-35.664;-63.766;2022-11-21T03:59:51;23.10;50.20
59975;DHT22;62136;-35.664;-63.766;2022-11-21T04:02:18;23.10;50.30
59975;DHT22;62136;-35.664;-63.766;2022-11-21T04:04:46;23.10;50.30
59975;DHT22;62136;-35.664;-63.766;2022-11-21T04:07:13;23.00;50.10
59975;DHT22;62136;-35.664;-63.766;2022-11-21T04:09:39;23.00;50.20
59975;DHT22;62136;-35.664;-63.766;2022-11-21T04:12:07;23.00;50.20
59975;DHT22;62136;-35.664;-63.766;2022-11-21T04:14:34;23.00;50.20
59975;DHT22;62136;-35.664;-63.766;2022-11-21T04:17:01;23.00;50.20
59975;DHT22;62136;-35.664;-63.766;2022-11-21T04:19:28;23.00;50.10
59975;DHT22;62136;-35.664;-63.766;2022-11-21T04:21:55;23.00;50.20
59975;DHT22;62136;-35.664;-63.766;2022-11-21T04:24:22;22.90;50.10
59975;DHT22;62136;-35.664;-63.766;2022-11-21T04:26:49;22.90;50.10
59975;DHT22;62136;-35.664;-63.766;2022-11-21T04:29:16;22.90;50.20
59975;DHT22;62136;-35.664;-63.766;2022-11-21T04:31:43;22.80;50.10
59975;DHT22;62136;-35.664;-63.766;2022-11-21T04:34:10;22.90;50.30
59975;DHT22;62136;-35.664;-63.766;2022-11-21T04:36:37;22.80;50.20
59975;DHT22;62136;-35.664;-63.766;2022-11-21T04:39:04;22.80;50.20
59975;DHT22;62136;-35.664;-63.766;2022-11-21T04:41:31;22.80;50.20
59975;DHT22;62136;-35.664;-63.766;2022-11-21T04:43:58;22.80;50.40
59975;DHT22;62136;-35.664;-63.766;2022-11-21T04:46:25;22.80;50.30
59975;DHT22;62136;-35.664;-63.766;2022-11-21T04:48:52;22.70;50.10
59975;DHT22;62136;-35.664;-63.766;2022-11-21T04:51:19;22.70;50.10
59975;DHT22;62136;-35.664;-63.766;2022-11-21T04:53:46;22.70;50.20
59975;DHT22;62136;-35.664;-63.766;2022-11-21T04:56:13;22.70;50.30
59975;DHT22;62136;-35.664;-63.766;2022-11-21T04:58:42;22.70;50.20
59975;DHT22;62136;-35.664;-63.766;2022-11-21T05:01:10;22.70;50.10
59975;DHT22;62136;-35.664;-63.766;2022-11-21T05:03:39;22.70;50.30
59975;DHT22;62136;-35.664;-63.766;2022-11-21T05:06:06;22.70;50.20
59975;DHT22;62136;-35.664;-63.766;2022-11-21T05:08:33;22.60;50.20
59975;DHT22;62136;-35.664;-63.766;2022-11-21T05:11:00;22.60;50.20
59975;DHT22;62136;-35.664;-63.766;2022-11-21T05:13:45;22.60;50.20
59975;DHT22;62136;-35.664;-63.766;2022-11-21T05:16:12;22.60;50.20
59975;DHT22;62136;-35.664;-63.766;2022-11-21T05:18:39;22.50;50.30
59975;DHT22;62136;-35.664;-63.766;2022-11-21T05:21:06;22.60;50.20
59975;DHT22;62136;-35.664;-63.766;2022-11-21T05:23:33;22.50;50.10
59975;DHT22;62136;-35.664;-63.766;2022-11-21T05:26:00;22.50;50.20
59975;DHT22;62136;-35.664;-63.766;2022-11-21T05:28:27;22.50;50.10
59975;DHT22;62136;-35.664;-63.766;2022-11-21T05:30:54;22.50;50.20
59975;DHT22;62136;-35.664;-63.766;2022-11-21T05:33:21;22.40;50.20
59975;DHT22;62136;-35.664;-63.766;2022-11-21T05:35:48;22.40;50.10
59975;DHT22;62136;-35.664;-63.766;2022-11-21T05:38:15;22.40;50.20
59975;DHT22;62136;-35.664;-63.766;2022-11-21T05:40:42;22.40;50.20
59975;DHT22;62136;-35.664;-63.766;2022-11-21T05:43:10;22.40;50.30
59975;DHT22;62136;-35.664;-63.766;2022-11-21T05:45:56;22.40;50.20
59975;DHT22;62136;-35.664;-63.766;2022-11-21T05:48:23;22.40;50.70
59975;DHT22;62136;-35.664;-63.766;2022-11-21T05:50:50;22.40;50.10
59975;DHT22;62136;-35.664;-63.766;2022-11-21T05:53:17;22.30;50.20
59975;DHT22;62136;-35.664;-63.766;2022-11-21T05:55:44;22.40;50.20
59975;DHT22;62136;-35.664;-63.766;2022-11-21T05:58:12;22.30;50.20
59975;DHT22;62136;-35.664;-63.766;2022-11-21T06:00:39;22.30;50.20
59975;DHT22;62136;-35.664;-63.766;2022-11-21T06:03:10;22.30;50.20
59975;DHT22;62136;-35.664;-63.766;2022-11-21T06:06:09;22.30;50.80
59975;DHT22;62136;-35.664;-63.766;2022-11-21T06:08:38;22.30;50.20
59975;DHT22;62136;-35.664;-63.766;2022-11-21T06:11:07;22.20;50.20
59975;DHT22;62136;-35.664;-63.766;2022-11-21T06:13:34;22.20;50.20
59975;DHT22;62136;-35.664;-63.766;2022-11-21T06:16:07;22.20;50.20
59975;DHT22;62136;-35.664;-63.766;2022-11-21T06:18:36;22.20;50.20
59975;DHT22;62136;-35.664;-63.766;2022-11-21T06:21:19;22.20;50.20
59975;DHT22;62136;-35.664;-63.766;2022-11-21T06:23:51;22.10;50.20
59975;DHT22;62136;-35.664;-63.766;2022-11-21T06:26:21;22.10;50.20
59975;DHT22;62136;-35.664;-63.766;2022-11-21T06:28:49;22.10;50.20
59975;DHT22;62136;-35.664;-63.766;2022-11-21T06:31:17;22.10;50.20
59975;DHT22;62136;-35.664;-63.766;2022-11-21T06:33:45;22.10;50.20
59975;DHT22;62136;-35.664;-63.766;2022-11-21T06:36:16;22.10;50.30
59975;DHT22;62136;-35.664;-63.766;2022-11-21T06:38:44;22.10;50.20
59975;DHT22;62136;-35.664;-63.766;2022-11-21T06:41:16;22.00;49.90
59975;DHT22;62136;-35.664;-63.766;2022-11-21T06:43:44;22.00;50.20
59975;DHT22;62136;-35.664;-63.766;2022-11-21T06:46:12;22.00;50.20
59975;DHT22;62136;-35.664;-63.766;2022-11-21T06:48:39;22.00;50.30
59975;DHT22;62136;-35.664;-63.766;2022-11-21T06:51:11;22.00;50.30
59975;DHT22;62136;-35.664;-63.766;2022-11-21T06:53:38;21.90;50.20
59975;DHT22;62136;-35.664;-63.766;2022-11-21T06:56:05;21.90;50.20
59975;DHT22;62136;-35.664;-63.766;2022-11-21T06:58:32;21.90;50.20
59975;DHT22;62136;-35.664;-63.766;2022-11-21T07:01:04;21.90;50.20
59975;DHT22;62136;-35.664;-63.766;2022-11-21T07:03:32;21.90;50.30
59975;DHT22;62136;-35.664;-63.766;2022-11-21T07:06:00;21.80;50.20
59975;DHT22;62136;-35.664;-63.766;2022-11-21T07:08:28;21.80;50.20
59975;DHT22;62136;-35.664;-63.766;2022-11-21T07:10:59;21.80;50.70
59975;DHT22;62136;-35.664;-63.766;2022-11-21T07:13:26;21.80;50.30
59975;DHT22;62136;-35.664;-63.766;2022-11-21T07:15:58;21.80;50.30
59975;DHT22;62136;-35.664;-63.766;2022-11-21T07:18:29;21.80;50.30
59975;DHT22;62136;-35.664;-63.766;2022-11-21T07:21:00;21.80;50.30
59975;DHT22;62136;-35.664;-63.766;2022-11-21T07:23:28;21.80;50.30
59975;DHT22;62136;-35.664;-63.766;2022-11-21T07:25:58;21.70;50.20
59975;DHT22;62136;-35.664;-63.766;2022-11-21T07:28:25;21.70;50.20
59975;DHT22;62136;-35.664;-63.766;2022-11-21T07:30:55;21.70;50.30
59975;DHT22;62136;-35.664;-63.766;2022-11-21T07:33:23;21.70;50.20
59975;DHT22;62136;-35.664;-63.766;2022-11-21T07:35:50;21.70;50.30
59975;DHT22;62136;-35.664;-63.766;2022-11-21T07:38:17;21.70;50.20
59975;DHT22;62136;-35.664;-63.766;2022-11-21T07:40:44;21.70;50.20
59975;DHT22;62136;-35.664;-63.766;2022-11-21T07:43:11;21.60;50.20
59975;DHT22;62136;-35.664;-63.766;2022-11-21T07:45:38;21.60;50.20
59975;DHT22;62136;-35.664;-63.766;2022-11-21T07:48:06;21.60;50.30
59975;DHT22;62136;-35.664;-63.766;2022-11-21T07:50:34;21.60;50.20
59975;DHT22;62136;-35.664;-63.766;2022-11-21T07:53:05;21.60;50.30
59975;DHT22;62136;-35.664;-63.766;2022-11-21T07:55:34;21.60;50.20
59975;DHT22;62136;-35.664;-63.766;2022-11-21T08:00:30;21.50;50.20
59975;DHT22;62136;-35.664;-63.766;2022-11-21T08:02:58;21.50;50.30
59975;DHT22;62136;-35.664;-63.766;2022-11-21T08:05:25;21.50;50.40
59975;DHT22;62136;-35.664;-63.766;2022-11-21T08:07:52;21.50;50.20
59975;DHT22;62136;-35.664;-63.766;2022-11-21T08:10:19;21.50;50.20
59975;DHT22;62136;-35.664;-63.766;2022-11-21T08:12:46;21.50;50.20
59975;DHT22;62136;-35.664;-63.766;2022-11-21T08:15:13;21.40;50.20
59975;DHT22;62136;-35.664;-63.766;2022-11-21T08:17:40;21.40;50.20
59975;DHT22;62136;-35.664;-63.766;2022-11-21T08:20:07;21.40;50.20
59975;DHT22;62136;-35.664;-63.766;2022-11-21T08:22:39;21.40;50.20
59975;DHT22;62136;-35.664;-63.766;2022-11-21T08:25:07;21.40;50.20
59975;DHT22;62136;-35.664;-63.766;2022-11-21T08:27:37;21.30;50.20
59975;DHT22;62136;-35.664;-63.766;2022-11-21T08:30:06;21.40;50.30
59975;DHT22;62136;-35.664;-63.766;2022-11-21T08:32:33;21.30;50.20
59975;DHT22;62136;-35.664;-63.766;2022-11-21T08:35:00;21.30;50.30
59975;DHT22;62136;-35.664;-63.766;2022-11-21T08:37:30;21.30;50.30
59975;DHT22;62136;-35.664;-63.766;2022-11-21T08:39:57;21.30;50.30
59975;DHT22;62136;-35.664;-63.766;2022-11-21T08:42:27;21.30;50.30
59975;DHT22;62136;-35.664;-63.766;2022-11-21T08:44:54;21.30;50.40
59975;DHT22;62136;-35.664;-63.766;2022-11-21T08:47:21;21.30;50.30
59975;DHT22;62136;-35.664;-63.766;2022-11-21T08:49:48;21.20;50.30
59975;DHT22;62136;-35.664;-63.766;2022-11-21T08:52:16;21.20;50.30
59975;DHT22;62136;-35.664;-63.766;2022-11-21T08:54:43;21.20;50.30
59975;DHT22;62136;-35.664;-63.766;2022-11-21T08:57:11;21.20;50.30
59975;DHT22;62136;-35.664;-63.766;2022-11-21T08:59:38;21.20;50.30
59975;DHT22;62136;-35.664;-63.766;2022-11-21T09:02:05;21.20;50.30
59975;DHT22;62136;-35.664;-63.766;2022-11-21T09:04:32;21.10;50.30
59975;DHT22;62136;-35.664;-63.766;2022-11-21T09:06:59;21.10;50.30
59975;DHT22;62136;-35.664;-63.766;2022-11-21T09:09:27;21.10;50.40
59975;DHT22;62136;-35.664;-63.766;2022-11-21T09:11:54;21.10;50.40
59975;DHT22;62136;-35.664;-63.766;2022-11-21T09:14:21;21.10;50.40
59975;DHT22;62136;-35.664;-63.766;2022-11-21T09:17:10;21.10;50.40
59975;DHT22;62136;-35.664;-63.766;2022-11-21T09:19:55;21.10;50.40
59975;DHT22;62136;-35.664;-63.766;2022-11-21T09:22:23;21.00;50.70
59975;DHT22;62136;-35.664;-63.766;2022-11-21T09:24:53;21.00;50.50
59975;DHT22;62136;-35.664;-63.766;2022-11-21T09:27:20;21.00;50.40
59975;DHT22;62136;-35.664;-63.766;2022-11-21T09:29:47;21.00;50.40
59975;DHT22;62136;-35.664;-63.766;2022-11-21T09:32:14;21.00;50.40
59975;DHT22;62136;-35.664;-63.766;2022-11-21T09:34:41;21.00;50.40
59975;DHT22;62136;-35.664;-63.766;2022-11-21T09:37:08;21.00;50.40
59975;DHT22;62136;-35.664;-63.766;2022-11-21T09:39:35;21.00;50.50
59975;DHT22;62136;-35.664;-63.766;2022-11-21T09:47:52;20.90;50.50
59975;DHT22;62136;-35.664;-63.766;2022-11-21T09:50:29;20.90;50.60
59975;DHT22;62136;-35.664;-63.766;2022-11-21T09:56:09;20.90;50.70
59975;DHT22;62136;-35.664;-63.766;2022-11-21T10:01:14;20.90;50.90
59975;DHT22;62136;-35.664;-63.766;2022-11-21T10:03:47;20.90;50.90
59975;DHT22;62136;-35.664;-63.766;2022-11-21T10:09:06;20.90;51.00
59975;DHT22;62136;-35.664;-63.766;2022-11-21T10:12:44;20.90;51.00
59975;DHT22;62136;-35.664;-63.766;2022-11-21T10:21:30;20.90;51.10
59975;DHT22;62136;-35.664;-63.766;2022-11-21T10:32:00;20.90;51.40
59975;DHT22;62136;-35.664;-63.766;2022-11-21T10:34:35;20.90;51.80
59975;DHT22;62136;-35.664;-63.766;2022-11-21T10:40:19;20.90;51.50
59975;DHT22;62136;-35.664;-63.766;2022-11-21T10:45:21;20.90;51.40
59975;DHT22;62136;-35.664;-63.766;2022-11-21T10:47:50;20.90;51.40
59975;DHT22;62136;-35.664;-63.766;2022-11-21T10:56:06;20.90;51.50
59975;DHT22;62136;-35.664;-63.766;2022-11-21T10:58:39;20.90;51.70
59975;DHT22;62136;-35.664;-63.766;2022-11-21T11:01:20;20.90;51.70
59975;DHT22;62136;-35.664;-63.766;2022-11-21T11:03:57;20.90;51.70
59975;DHT22;62136;-35.664;-63.766;2022-11-21T11:06:30;20.90;51.70
59975;DHT22;62136;-35.664;-63.766;2022-11-21T11:08:57;20.90;51.70
59975;DHT22;62136;-35.664;-63.766;2022-11-21T11:11:24;20.90;51.80
59975;DHT22;62136;-35.664;-63.766;2022-11-21T11:14:02;20.90;51.80
59975;DHT22;62136;-35.664;-63.766;2022-11-21T11:16:31;20.90;51.90
59975;DHT22;62136;-35.664;-63.766;2022-11-21T11:21:30;20.90;51.90
59975;DHT22;62136;-35.664;-63.766;2022-11-21T11:26:50;20.90;51.80
59975;DHT22;62136;-35.664;-63.766;2022-11-21T11:29:22;20.90;51.90
59975;DHT22;62136;-35.664;-63.766;2022-11-21T11:32:11;20.90;51.90
59975;DHT22;62136;-35.664;-63.766;2022-11-21T11:37:11;20.90;51.90
59975;DHT22;62136;-35.664;-63.766;2022-11-21T11:39:53;20.90;52.00
59975;DHT22;62136;-35.664;-63.766;2022-11-21T11:48:30;21.00;52.00
59975;DHT22;62136;-35.664;-63.766;2022-11-21T11:51:02;21.00;52.00
59975;DHT22;62136;-35.664;-63.766;2022-11-21T11:53:38;21.00;52.00
59975;DHT22;62136;-35.664;-63.766;2022-11-21T11:59:04;21.00;52.10
59975;DHT22;62136;-35.664;-63.766;2022-11-21T12:01:35;21.00;52.10
59975;DHT22;62136;-35.664;-63.766;2022-11-21T12:04:20;21.10;51.90
59975;DHT22;62136;-35.664;-63.766;2022-11-21T12:09:36;21.10;52.00
59975;DHT22;62136;-35.664;-63.766;2022-11-21T12:18:12;21.20;52.00
59975;DHT22;62136;-35.664;-63.766;2022-11-21T12:23:17;21.20;52.00
59975;DHT22;62136;-35.664;-63.766;2022-11-21T12:40:26;21.30;51.80
59975;DHT22;62136;-35.664;-63.766;2022-11-21T12:46:15;21.40;51.70
59975;DHT22;62136;-35.664;-63.766;2022-11-21T12:52:13;21.40;51.70
59975;DHT22;62136;-35.664;-63.766;2022-11-21T13:00:47;21.50;51.60
59975;DHT22;62136;-35.664;-63.766;2022-11-21T13:06:29;21.60;51.90
59975;DHT22;62136;-35.664;-63.766;2022-11-21T13:09:00;21.50;51.50
59975;DHT22;62136;-35.664;-63.766;2022-11-21T13:11:40;21.60;51.60
59975;DHT22;62136;-35.664;-63.766;2022-11-21T13:25:38;21.70;51.60
59975;DHT22;62136;-35.664;-63.766;2022-11-21T13:30:53;21.80;51.00
59975;DHT22;62136;-35.664;-63.766;2022-11-21T13:36:09;21.80;51.00
59975;DHT22;62136;-35.664;-63.766;2022-11-21T13:42:06;21.80;50.80
59975;DHT22;62136;-35.664;-63.766;2022-11-21T13:44:52;21.90;50.80
59975;DHT22;62136;-35.664;-63.766;2022-11-21T14:01:28;22.00;50.90
59975;DHT22;62136;-35.664;-63.766;2022-11-21T14:06:35;22.00;50.60
59975;DHT22;62136;-35.664;-63.766;2022-11-21T14:09:34;22.10;50.60
59975;DHT22;62136;-35.664;-63.766;2022-11-21T14:12:32;22.10;50.50
59975;DHT22;62136;-35.664;-63.766;2022-11-21T14:17:49;22.20;50.40
59975;DHT22;62136;-35.664;-63.766;2022-11-21T14:23:02;22.20;50.30
59975;DHT22;62136;-35.664;-63.766;2022-11-21T14:25:58;22.20;50.20
59975;DHT22;62136;-35.664;-63.766;2022-11-21T14:28:26;22.20;50.10
59975;DHT22;62136;-35.664;-63.766;2022-11-21T14:30:59;22.30;50.00
59975;DHT22;62136;-35.664;-63.766;2022-11-21T14:33:40;22.30;50.10
59975;DHT22;62136;-35.664;-63.766;2022-11-21T14:36:20;22.30;49.90
59975;DHT22;62136;-35.664;-63.766;2022-11-21T14:38:52;22.30;49.70
59975;DHT22;62136;-35.664;-63.766;2022-11-21T14:41:26;22.40;49.60
59975;DHT22;62136;-35.664;-63.766;2022-11-21T14:46:32;22.40;49.30
59975;DHT22;62136;-35.664;-63.766;2022-11-21T14:54:55;22.50;49.10
59975;DHT22;62136;-35.664;-63.766;2022-11-21T14:57:42;22.60;49.20
59975;DHT22;62136;-35.664;-63.766;2022-11-21T15:00:14;22.60;48.90
59975;DHT22;62136;-35.664;-63.766;2022-11-21T15:02:42;22.60;49.00
59975;DHT22;62136;-35.664;-63.766;2022-11-21T15:05:14;22.70;49.00
59975;DHT22;62136;-35.664;-63.766;2022-11-21T15:07:43;22.70;48.90
59975;DHT22;62136;-35.664;-63.766;2022-11-21T15:10:16;22.70;48.90
59975;DHT22;62136;-35.664;-63.766;2022-11-21T15:15:29;22.80;48.70
59975;DHT22;62136;-35.664;-63.766;2022-11-21T15:18:21;22.80;48.60
59975;DHT22;62136;-35.664;-63.766;2022-11-21T15:20:51;22.80;48.60
59975;DHT22;62136;-35.664;-63.766;2022-11-21T15:23:37;22.80;48.60
59975;DHT22;62136;-35.664;-63.766;2022-11-21T15:26:23;22.80;48.40
59975;DHT22;62136;-35.664;-63.766;2022-11-21T15:28:55;22.90;48.40
59975;DHT22;62136;-35.664;-63.766;2022-11-21T15:31:23;22.90;48.30
59975;DHT22;62136;-35.664;-63.766;2022-11-21T15:34:04;22.90;48.40
59975;DHT22;62136;-35.664;-63.766;2022-11-21T15:36:32;22.90;48.20
59975;DHT22;62136;-35.664;-63.766;2022-11-21T15:48:58;23.00;48.20
59975;DHT22;62136;-35.664;-63.766;2022-11-21T15:51:50;23.10;48.10
59975;DHT22;62136;-35.664;-63.766;2022-11-21T15:54:18;23.10;47.90
59975;DHT22;62136;-35.664;-63.766;2022-11-21T15:56:46;23.00;48.00
59975;DHT22;62136;-35.664;-63.766;2022-11-21T15:59:14;23.10;48.20
59975;DHT22;62136;-35.664;-63.766;2022-11-21T16:01:41;23.10;48.20
59975;DHT22;62136;-35.664;-63.766;2022-11-21T16:04:10;23.20;48.10
59975;DHT22;62136;-35.664;-63.766;2022-11-21T16:06:38;23.20;48.00
59975;DHT22;62136;-35.664;-63.766;2022-11-21T16:09:05;23.20;47.80
59975;DHT22;62136;-35.664;-63.766;2022-11-21T16:11:35;23.20;47.80
59975;DHT22;62136;-35.664;-63.766;2022-11-21T16:14:15;23.20;47.60
59975;DHT22;62136;-35.664;-63.766;2022-11-21T16:16:44;23.20;47.50
59975;DHT22;62136;-35.664;-63.766;2022-11-21T16:19:12;23.20;47.70
59975;DHT22;62136;-35.664;-63.766;2022-11-21T16:21:39;23.20;48.00
59975;DHT22;62136;-35.664;-63.766;2022-11-21T16:24:06;23.20;47.50
59975;DHT22;62136;-35.664;-63.766;2022-11-21T16:26:34;23.30;47.60
59975;DHT22;62136;-35.664;-63.766;2022-11-21T16:29:02;23.30;47.50
59975;DHT22;62136;-35.664;-63.766;2022-11-21T16:31:31;23.30;47.80
59975;DHT22;62136;-35.664;-63.766;2022-11-21T16:33:59;23.30;47.50
59975;DHT22;62136;-35.664;-63.766;2022-11-21T16:36:28;23.30;47.50
59975;DHT22;62136;-35.664;-63.766;2022-11-21T16:38:55;23.30;47.00
59975;DHT22;62136;-35.664;-63.766;2022-11-21T16:41:27;23.40;47.50
59975;DHT22;62136;-35.664;-63.766;2022-11-21T16:43:55;23.40;46.90
59975;DHT22;62136;-35.664;-63.766;2022-11-21T16:46:23;23.40;47.10
59975;DHT22;62136;-35.664;-63.766;2022-11-21T16:48:59;23.50;47.20
59975;DHT22;62136;-35.664;-63.766;2022-11-21T16:51:26;23.50;47.00
59975;DHT22;62136;-35.664;-63.766;2022-11-21T16:53:54;23.50;46.90
59975;DHT22;62136;-35.664;-63.766;2022-11-21T16:56:22;23.50;47.00
59975;DHT22;62136;-35.664;-63.766;2022-11-21T16:58:49;23.50;47.00
59975;DHT22;62136;-35.664;-63.766;2022-11-21T17:01:24;23.50;46.80
59975;DHT22;62136;-35.664;-63.766;2022-11-21T17:03:52;23.60;46.90
59975;DHT22;62136;-35.664;-63.766;2022-11-21T17:06:24;23.60;46.60
59975;DHT22;62136;-35.664;-63.766;2022-11-21T17:08:54;23.60;46.60
59975;DHT22;62136;-35.664;-63.766;2022-11-21T17:11:23;23.60;46.50
59975;DHT22;62136;-35.664;-63.766;2022-11-21T17:14:04;23.60;46.60
59975;DHT22;62136;-35.664;-63.766;2022-11-21T17:16:32;23.60;46.20
59975;DHT22;62136;-35.664;-63.766;2022-11-21T17:19:01;23.60;46.50
59975;DHT22;62136;-35.664;-63.766;2022-11-21T17:21:29;23.70;46.30
59975;DHT22;62136;-35.664;-63.766;2022-11-21T17:23:57;23.70;46.50
59975;DHT22;62136;-35.664;-63.766;2022-11-21T17:26:26;23.80;46.10
59975;DHT22;62136;-35.664;-63.766;2022-11-21T17:28:56;23.80;46.10
59975;DHT22;62136;-35.664;-63.766;2022-11-21T17:31:23;23.80;46.00
59975;DHT22;62136;-35.664;-63.766;2022-11-21T17:33:51;23.80;46.10
59975;DHT22;62136;-35.664;-63.766;2022-11-21T17:36:22;23.80;45.90
59975;DHT22;62136;-35.664;-63.766;2022-11-21T17:38:50;23.80;46.00
59975;DHT22;62136;-35.664;-63.766;2022-11-21T17:41:19;23.90;45.70
59975;DHT22;62136;-35.664;-63.766;2022-11-21T17:43:46;23.90;45.90
59975;DHT22;62136;-35.664;-63.766;2022-11-21T17:46:16;23.90;45.80
59975;DHT22;62136;-35.664;-63.766;2022-11-21T17:48:44;23.90;45.70
59975;DHT22;62136;-35.664;-63.766;2022-11-21T17:51:14;24.00;45.60
59975;DHT22;62136;-35.664;-63.766;2022-11-21T17:53:43;24.00;45.60
59975;DHT22;62136;-35.664;-63.766;2022-11-21T17:56:13;24.00;45.60